createdAt,value
2022-10-17T00:01:08.048Z,20.98
2022-10-17T00:03:39.013Z,21.02
2022-10-17T00:06:08.608Z,21.40
2022-10-17T00:08:37.113Z,21.88
2022-10-17T00:11:07.973Z,20.85
2022-10-17T00:13:36.671Z,21.30
2022-10-17T00:16:05.268Z,20.63
2022-10-17T00:18:33.691Z,21.75
2022-10-17T00:21:03.232Z,21.70
2022-10-17T00:23:31.453Z,21.13
2022-10-17T00:26:00.910Z,22.38
2022-10-17T00:28:29.228Z,21.08
2022-10-17T00:30:59.310Z,21.83
2022-10-17T00:33:27.681Z,22.50
2022-10-17T00:36:07.202Z,22.08
2022-10-17T00:38:37.572Z,22.02
2022-10-17T00:41:06.235Z,22.27
2022-10-17T00:43:53.270Z,22.40
2022-10-17T00:46:22.671Z,23.38
2022-10-17T00:48:53.136Z,22.15
2022-10-17T00:51:29.691Z,21.75
2022-10-17T00:53:58.070Z,22.23
2022-10-17T00:56:26.375Z,21.30
2022-10-17T00:58:54.713Z,21.30
2022-10-17T01:01:22.947Z,21.27
2022-10-17T01:03:51.233Z,23.25
2022-10-17T01:06:19.724Z,22.15
2022-10-17T01:08:49.395Z,21.85
2022-10-17T01:11:29.129Z,22.73
2022-10-17T01:14:03.926Z,22.73
2022-10-17T01:16:40.708Z,22.17
2022-10-17T01:19:35.739Z,23.05
2022-10-17T01:22:10.996Z,20.85
2022-10-17T01:25:02.663Z,21.17
2022-10-17T01:27:56.926Z,21.20
2022-10-17T01:30:47.225Z,21.35
2022-10-17T01:33:22.959Z,21.70
2022-10-17T01:35:55.951Z,21.40
2022-10-17T01:38:28.659Z,20.75
2022-10-17T01:41:02.369Z,21.58
2022-10-17T01:43:36.026Z,21.35
2022-10-17T01:46:13.321Z,21.85
2022-10-17T01:48:46.340Z,21.02
2022-10-17T01:51:19.096Z,21.88
2022-10-17T01:53:53.387Z,21.75
2022-10-17T01:56:23.431Z,21.10
2022-10-17T01:58:56.583Z,20.65
2022-10-17T02:01:27.950Z,22.23
2022-10-17T02:03:58.956Z,21.52
2022-10-17T02:06:28.989Z,20.42
2022-10-17T02:08:57.998Z,21.92
2022-10-17T02:11:28.269Z,19.92
2022-10-17T02:14:19.618Z,21.40
2022-10-17T02:16:57.400Z,21.40
2022-10-17T02:19:42.276Z,21.65
2022-10-17T02:22:20.633Z,22.98
2022-10-17T02:24:53.665Z,21.55
2022-10-17T02:27:30.457Z,21.52
2022-10-17T02:30:03.885Z,21.40
2022-10-17T02:32:39.640Z,21.25
2022-10-17T02:35:11.299Z,22.75
2022-10-17T02:37:42.026Z,21.33
2022-10-17T02:40:14.341Z,20.92
2022-10-17T02:42:46.096Z,22.88
2022-10-17T02:45:15.798Z,21.08
2022-10-17T02:47:53.469Z,21.08
2022-10-17T02:50:33.848Z,20.55
2022-10-17T02:53:07.432Z,22.25
2022-10-17T02:55:42.064Z,20.60
2022-10-17T02:58:14.757Z,21.05
2022-10-17T03:00:44.841Z,21.40
2022-10-17T03:03:26.595Z,20.88
2022-10-17T03:05:55.640Z,22.13
2022-10-17T03:08:27.071Z,21.83
2022-10-17T03:10:57.406Z,23.13
2022-10-17T03:13:27.686Z,23.45
2022-10-17T03:15:58.110Z,24.00
2022-10-17T03:18:27.741Z,24.42
2022-10-17T03:21:00.410Z,23.75
2022-10-17T03:23:29.272Z,23.60
2022-10-17T03:25:57.508Z,20.95
2022-10-17T03:28:25.856Z,23.55
2022-10-17T03:30:54.055Z,23.95
2022-10-17T03:33:22.963Z,23.77
2022-10-17T03:35:52.597Z,24.80
2022-10-17T03:38:20.903Z,23.55
2022-10-17T03:40:56.422Z,25.85
2022-10-17T03:43:24.856Z,25.10
2022-10-17T03:45:52.997Z,25.73
2022-10-17T03:48:21.253Z,24.52
2022-10-17T03:50:50.193Z,24.33
2022-10-17T03:53:20.123Z,24.73
2022-10-17T03:55:48.468Z,23.30
2022-10-17T03:58:16.717Z,25.40
2022-10-17T04:00:45.994Z,25.13
2022-10-17T04:03:17.196Z,25.10
2022-10-17T04:05:46.006Z,23.65
2022-10-17T04:08:14.161Z,24.30
2022-10-17T04:11:03.176Z,25.23
2022-10-17T04:13:32.995Z,23.27
2022-10-17T04:16:03.520Z,23.77
2022-10-17T04:18:32.566Z,21.42
2022-10-17T04:21:03.581Z,23.08
2022-10-17T04:23:33.213Z,23.15
2022-10-17T04:26:11.763Z,22.92
2022-10-17T04:28:41.174Z,21.83
2022-10-17T04:31:12.975Z,22.58
2022-10-17T04:34:00.193Z,23.13
2022-10-17T04:36:28.662Z,22.10
2022-10-17T04:38:56.878Z,24.67
2022-10-17T04:41:27.018Z,24.25
2022-10-17T04:43:55.387Z,24.25
2022-10-17T04:46:24.471Z,24.55
2022-10-17T04:48:52.699Z,24.80
2022-10-17T04:51:23.281Z,25.20
2022-10-17T04:54:23.729Z,26.05
2022-10-17T04:57:00.469Z,25.83
2022-10-17T04:59:31.346Z,26.50
2022-10-17T05:02:25.929Z,24.80
2022-10-17T05:04:54.521Z,26.58
2022-10-17T05:07:23.696Z,25.75
2022-10-17T05:10:00.051Z,26.27
2022-10-17T05:12:30.219Z,25.88
2022-10-17T05:14:58.592Z,27.95
2022-10-17T05:17:29.165Z,27.42
2022-10-17T05:19:57.518Z,26.17
2022-10-17T05:22:25.863Z,27.35
2022-10-17T05:24:54.186Z,27.60
2022-10-17T05:27:22.358Z,26.73
2022-10-17T05:29:52.325Z,27.33
2022-10-17T05:32:26.908Z,27.23
2022-10-17T05:34:55.421Z,26.63
2022-10-17T05:37:25.268Z,26.52
2022-10-17T05:39:56.457Z,25.40
2022-10-17T05:42:25.691Z,25.33
2022-10-17T05:44:55.393Z,25.83
2022-10-17T05:47:23.801Z,24.15
2022-10-17T05:49:52.598Z,24.38
2022-10-17T05:52:31.566Z,23.75
2022-10-17T05:55:20.234Z,23.83
2022-10-17T05:57:48.759Z,23.58
2022-10-17T06:00:21.251Z,23.55
2022-10-17T06:02:57.750Z,22.88
2022-10-17T06:05:26.189Z,22.25
2022-10-17T06:07:58.169Z,22.45
2022-10-17T06:10:31.104Z,22.42
2022-10-17T06:13:00.613Z,22.85
2022-10-17T06:15:30.266Z,22.10
2022-10-17T06:18:06.401Z,22.92
2022-10-17T06:20:34.997Z,23.33
2022-10-17T06:23:06.397Z,23.40
2022-10-17T06:25:53.560Z,21.85
2022-10-17T06:28:22.112Z,21.45
2022-10-17T06:30:51.784Z,22.08
2022-10-17T06:33:21.627Z,23.05
2022-10-17T06:35:52.752Z,23.10
2022-10-17T06:38:22.055Z,22.23
2022-10-17T06:40:54.213Z,22.85
2022-10-17T06:43:27.058Z,23.27
2022-10-17T06:46:21.212Z,23.77
2022-10-17T06:49:01.697Z,23.02
2022-10-17T06:51:47.171Z,22.13
2022-10-17T06:54:18.082Z,22.50
2022-10-17T06:57:04.722Z,22.83
2022-10-17T06:59:51.856Z,24.35
2022-10-17T07:02:26.049Z,23.10
2022-10-17T07:04:56.496Z,22.55
2022-10-17T07:07:24.759Z,23.85
2022-10-17T07:09:54.381Z,24.60
2022-10-17T07:12:23.392Z,25.23
2022-10-17T07:14:54.886Z,24.60
2022-10-17T07:17:25.151Z,25.58
2022-10-17T07:19:53.607Z,25.08
2022-10-17T07:22:21.760Z,25.48
2022-10-17T07:24:52.692Z,23.92
2022-10-17T07:27:34.943Z,23.55
2022-10-17T07:30:03.462Z,23.70
2022-10-17T07:32:39.378Z,24.20
2022-10-17T07:35:10.467Z,23.00
2022-10-17T07:37:40.193Z,22.00
2022-10-17T07:40:10.081Z,22.30
2022-10-17T07:45:13.318Z,23.17
2022-10-17T07:47:44.671Z,22.20
2022-10-17T07:50:16.918Z,22.65
2022-10-17T07:52:45.193Z,22.52
2022-10-17T07:55:13.344Z,22.17
2022-10-17T07:57:41.548Z,24.60
2022-10-17T08:00:10.953Z,22.88
2022-10-17T08:02:44.203Z,21.23
2022-10-17T08:05:12.669Z,21.65
2022-10-17T08:07:41.839Z,20.40
2022-10-17T08:10:11.599Z,21.25
2022-10-17T08:12:39.831Z,21.17
2022-10-17T08:15:09.515Z,21.38
2022-10-17T08:17:39.341Z,20.67
2022-10-17T08:20:09.780Z,21.35
2022-10-17T08:22:37.919Z,20.65
2022-10-17T08:25:06.989Z,20.05
2022-10-17T08:27:35.699Z,20.13
2022-10-17T08:30:04.360Z,19.90
2022-10-17T08:32:32.816Z,20.67
2022-10-17T08:35:01.339Z,19.55
2022-10-17T08:37:31.850Z,19.15
2022-10-17T08:40:00.497Z,19.27
2022-10-17T08:42:50.237Z,18.95
2022-10-17T08:45:26.587Z,19.42
2022-10-17T08:48:00.664Z,18.98
2022-10-17T08:50:36.417Z,19.40
2022-10-17T08:53:15.461Z,19.10
2022-10-17T08:55:47.233Z,18.98
2022-10-17T08:58:18.384Z,18.65
2022-10-17T09:00:52.395Z,18.42
2022-10-17T09:03:39.774Z,18.83
2022-10-17T09:06:18.953Z,18.70
2022-10-17T09:08:57.086Z,17.92
2022-10-17T09:11:41.928Z,18.77
2022-10-17T09:14:32.388Z,18.30
2022-10-17T09:17:16.113Z,17.52
2022-10-17T09:19:50.293Z,17.90
2022-10-17T09:22:22.655Z,17.77
2022-10-17T09:24:56.251Z,17.13
2022-10-17T09:27:26.166Z,17.25
2022-10-17T09:30:02.823Z,16.52
2022-10-17T09:32:31.428Z,16.30
2022-10-17T09:34:59.893Z,16.48
2022-10-17T09:37:33.802Z,16.38
2022-10-17T09:40:03.515Z,16.20
2022-10-17T09:42:32.353Z,16.33
2022-10-17T09:45:14.964Z,16.15
2022-10-17T09:50:26.570Z,15.95
2022-10-17T09:52:55.497Z,14.82
2022-10-17T09:55:32.445Z,15.18
2022-10-17T09:58:02.650Z,15.30
2022-10-17T10:00:33.383Z,14.93
2022-10-17T10:03:16.565Z,15.35
2022-10-17T10:05:59.474Z,15.40
2022-10-17T10:08:30.557Z,14.93
2022-10-17T10:11:04.441Z,14.75
2022-10-17T10:13:34.070Z,15.15
2022-10-17T10:16:24.317Z,14.88
2022-10-17T10:18:53.387Z,14.27
2022-10-17T10:21:23.250Z,14.70
2022-10-17T10:24:13.340Z,14.07
2022-10-17T10:26:46.385Z,14.35
2022-10-17T10:29:30.959Z,14.05
2022-10-17T10:32:10.145Z,14.32
2022-10-17T10:34:42.392Z,13.52
2022-10-17T10:37:21.180Z,13.25
2022-10-17T10:39:51.321Z,13.57
2022-10-17T10:42:28.188Z,13.40
2022-10-17T10:45:00.031Z,14.57
2022-10-17T10:47:30.422Z,13.85
2022-10-17T10:50:19.527Z,14.05
2022-10-17T10:52:51.947Z,13.63
2022-10-17T10:55:27.365Z,14.85
2022-10-17T10:58:01.356Z,14.98
2022-10-17T11:00:32.460Z,13.80
2022-10-17T11:03:10.593Z,13.45
2022-10-17T11:05:45.794Z,13.48
2022-10-17T11:08:24.555Z,13.55
2022-10-17T11:11:04.998Z,13.70
2022-10-17T11:13:42.001Z,13.77
2022-10-17T11:16:21.835Z,13.77
2022-10-17T11:18:54.514Z,13.68
2022-10-17T11:21:32.757Z,13.55
2022-10-17T11:24:09.211Z,14.70
2022-10-17T11:26:46.056Z,13.07
2022-10-17T11:29:15.909Z,14.75
2022-10-17T11:31:51.129Z,14.77
2022-10-17T11:34:24.028Z,13.70
2022-10-17T11:36:55.764Z,14.30
2022-10-17T11:39:30.386Z,13.88
2022-10-17T11:42:04.317Z,13.45
2022-10-17T11:44:37.926Z,14.77
2022-10-17T11:47:12.644Z,13.88
2022-10-17T11:49:45.994Z,14.45
2022-10-17T11:52:44.324Z,14.05
2022-10-17T11:55:22.875Z,13.93
2022-10-17T11:58:07.037Z,13.35
2022-10-17T12:00:55.475Z,14.15
2022-10-17T12:03:46.150Z,13.80
2022-10-17T12:06:21.676Z,14.35
2022-10-17T12:08:59.602Z,13.50
2022-10-17T12:11:35.798Z,13.75
2022-10-17T12:14:06.161Z,13.25
2022-10-17T12:16:47.473Z,13.32
2022-10-17T12:19:32.756Z,13.98
2022-10-17T12:22:08.273Z,12.77
2022-10-17T12:24:41.141Z,13.93
2022-10-17T12:27:42.383Z,13.10
2022-10-17T12:30:20.227Z,12.40
2022-10-17T12:33:07.029Z,12.10
2022-10-17T12:35:37.865Z,12.57
2022-10-17T12:38:25.344Z,12.55
2022-10-17T12:40:59.117Z,13.15
2022-10-17T12:43:57.221Z,12.55
2022-10-17T12:46:58.936Z,12.95
2022-10-17T12:49:45.538Z,13.50
2022-10-17T12:52:49.397Z,12.77
2022-10-17T12:55:19.468Z,13.38
2022-10-17T12:57:55.784Z,13.48
2022-10-17T13:00:30.585Z,13.45
2022-10-17T13:03:12.647Z,13.30
2022-10-17T13:05:48.449Z,13.38
2022-10-17T13:08:24.941Z,12.95
2022-10-17T13:10:54.785Z,12.88
2022-10-17T13:13:25.454Z,12.25
2022-10-17T13:15:55.369Z,12.77
2022-10-17T13:18:25.306Z,12.65
2022-10-17T13:21:01.229Z,12.98
2022-10-17T13:23:32.918Z,12.50
2022-10-17T13:26:14.260Z,12.65
2022-10-17T13:28:42.833Z,12.43
2022-10-17T13:31:29.249Z,13.07
2022-10-17T13:33:59.112Z,13.23
2022-10-17T13:36:30.031Z,13.60
2022-10-17T13:39:00.374Z,12.95
2022-10-17T13:41:35.832Z,13.13
2022-10-17T13:44:12.675Z,13.18
2022-10-17T13:46:41.232Z,13.98
2022-10-17T13:49:23.185Z,12.70
2022-10-17T13:51:57.029Z,12.73
2022-10-17T13:54:37.929Z,13.15
2022-10-17T13:57:08.159Z,13.48
2022-10-17T13:59:40.671Z,13.02
2022-10-17T14:02:16.378Z,13.25
2022-10-17T14:05:15.063Z,13.75
2022-10-17T14:08:05.583Z,13.18
2022-10-17T14:10:28.742Z,13.65
2022-10-17T14:12:57.823Z,13.35
2022-10-17T14:15:28.645Z,13.25
2022-10-17T14:18:01.480Z,13.40
2022-10-17T14:21:31.756Z,13.55
2022-10-17T14:23:35.098Z,13.85
2022-10-17T14:26:09.212Z,13.10
2022-10-17T14:28:38.078Z,13.90
2022-10-17T14:31:31.372Z,14.20
2022-10-17T14:34:01.104Z,13.07
2022-10-17T14:36:38.654Z,14.18
2022-10-17T14:39:16.935Z,13.70
2022-10-17T14:41:46.992Z,14.18
2022-10-17T14:44:21.750Z,14.10
2022-10-17T14:46:54.987Z,13.80
2022-10-17T14:49:36.456Z,13.18
2022-10-17T14:52:32.765Z,13.95
2022-10-17T14:55:21.650Z,14.63
2022-10-17T14:57:49.878Z,14.50
2022-10-17T15:00:19.344Z,14.95
2022-10-17T15:02:48.515Z,14.23
2022-10-17T15:05:16.920Z,14.07
2022-10-17T15:07:45.501Z,14.65
2022-10-17T15:10:29.369Z,14.73
2022-10-17T15:13:04.643Z,15.25
2022-10-17T15:15:46.081Z,14.88
2022-10-17T15:18:16.437Z,14.57
2022-10-17T15:20:44.791Z,14.95
2022-10-17T15:23:13.125Z,14.23
2022-10-17T15:25:42.717Z,14.98
2022-10-17T15:28:14.088Z,15.70
2022-10-17T15:30:42.311Z,14.48
2022-10-17T15:33:10.512Z,14.80
2022-10-17T15:35:38.873Z,14.82
2022-10-17T15:38:09.773Z,14.77
2022-10-17T15:40:37.981Z,15.90
2022-10-17T15:43:07.511Z,15.43
2022-10-17T15:45:36.081Z,16.45
2022-10-17T15:48:06.994Z,16.95
2022-10-17T15:50:35.378Z,16.40
2022-10-17T15:53:03.672Z,15.45
2022-10-17T15:55:32.532Z,16.55
2022-10-17T15:58:00.786Z,15.70
2022-10-17T16:00:30.553Z,16.48
2022-10-17T16:02:58.720Z,16.10
2022-10-17T16:05:28.561Z,16.27
2022-10-17T16:07:57.886Z,16.55
2022-10-17T16:10:26.658Z,16.63
2022-10-17T16:12:55.201Z,16.90
2022-10-17T16:15:25.054Z,17.90
2022-10-17T16:17:55.698Z,17.65
2022-10-17T16:20:25.203Z,17.67
2022-10-17T16:22:59.830Z,17.38
2022-10-17T16:25:30.205Z,18.05
2022-10-17T16:27:59.776Z,17.15
2022-10-17T16:30:30.621Z,17.20
2022-10-17T16:33:00.440Z,17.42
2022-10-17T16:35:34.795Z,18.20
2022-10-17T16:38:06.230Z,17.60
2022-10-17T16:40:34.633Z,18.58
2022-10-17T16:43:02.860Z,17.80
2022-10-17T16:45:31.442Z,18.05
2022-10-17T16:48:01.052Z,17.92
2022-10-17T16:50:31.308Z,17.60
2022-10-17T16:52:59.574Z,19.10
2022-10-17T16:55:27.730Z,18.88
2022-10-17T16:57:55.956Z,17.85
2022-10-17T17:00:24.195Z,17.98
2022-10-17T17:02:52.413Z,17.90
2022-10-17T17:05:21.966Z,18.33
2022-10-17T17:07:50.258Z,18.08
2022-10-17T17:10:18.412Z,18.63
2022-10-17T17:12:46.662Z,16.60
2022-10-17T17:15:14.987Z,18.83
2022-10-17T17:17:53.523Z,18.08
2022-10-17T17:20:25.183Z,19.35
2022-10-17T17:22:53.271Z,18.63
2022-10-17T17:25:21.624Z,18.85
2022-10-17T17:27:50.017Z,17.95
2022-10-17T17:30:18.405Z,17.45
2022-10-17T17:32:46.624Z,18.30
2022-10-17T17:35:15.040Z,17.98
2022-10-17T17:37:44.575Z,19.00
2022-10-17T17:40:13.342Z,18.27
2022-10-17T17:42:41.726Z,19.52
2022-10-17T17:45:10.971Z,19.17
2022-10-17T17:47:39.129Z,19.25
2022-10-17T17:50:08.202Z,18.23
2022-10-17T17:52:36.364Z,18.80
2022-10-17T17:55:06.889Z,19.20
2022-10-17T17:57:35.101Z,19.10
2022-10-17T18:00:03.546Z,18.75
2022-10-17T18:02:32.483Z,17.70
2022-10-17T18:05:00.924Z,18.98
2022-10-17T18:07:30.430Z,18.58
2022-10-17T18:09:58.800Z,17.58
2022-10-17T18:12:28.694Z,18.98
2022-10-17T18:14:57.030Z,19.48
2022-10-17T18:17:25.286Z,19.13
2022-10-17T18:19:53.576Z,19.50
2022-10-17T18:22:22.979Z,19.55
2022-10-17T18:24:51.359Z,19.38
2022-10-17T18:27:19.725Z,19.50
2022-10-17T18:29:50.533Z,18.42
2022-10-17T18:32:19.027Z,19.45
2022-10-17T18:34:47.366Z,20.05
2022-10-17T18:37:15.522Z,19.92
2022-10-17T18:39:43.701Z,20.38
2022-10-17T18:42:12.190Z,19.40
2022-10-17T18:44:40.401Z,19.08
2022-10-17T18:47:10.786Z,19.13
2022-10-17T18:49:39.092Z,19.85
2022-10-17T18:52:07.530Z,19.30
2022-10-17T18:54:35.839Z,18.83
2022-10-17T18:57:04.242Z,19.75
2022-10-17T18:59:32.496Z,19.05
2022-10-17T19:02:00.956Z,19.55
2022-10-17T19:04:30.635Z,18.40
2022-10-17T19:06:58.887Z,19.70
2022-10-17T19:09:27.056Z,17.52
2022-10-17T19:11:56.547Z,18.40
2022-10-17T19:14:26.261Z,18.48
2022-10-17T19:16:54.393Z,18.20
2022-10-17T19:19:24.634Z,18.23
2022-10-17T19:21:54.508Z,18.17
2022-10-17T19:24:25.488Z,17.90
2022-10-17T19:26:56.030Z,18.20
2022-10-17T19:29:25.962Z,17.77
2022-10-17T19:34:24.053Z,18.05
2022-10-17T19:36:53.927Z,18.35
2022-10-17T19:39:25.218Z,18.70
2022-10-17T19:41:53.612Z,18.20
2022-10-17T19:44:21.897Z,18.20
2022-10-17T19:46:50.333Z,18.05
2022-10-17T19:49:19.377Z,18.70
2022-10-17T19:51:48.002Z,18.38
2022-10-17T19:54:18.990Z,19.90
2022-10-17T19:56:47.534Z,19.00
2022-10-17T19:59:17.057Z,19.20
2022-10-17T20:01:46.351Z,18.90
2022-10-17T20:04:14.597Z,19.52
2022-10-17T20:06:43.076Z,21.10
2022-10-17T20:09:16.602Z,20.02
2022-10-17T20:11:47.077Z,20.10
2022-10-17T20:14:15.303Z,20.27
2022-10-17T20:16:44.860Z,21.20
2022-10-17T20:19:14.196Z,21.95
2022-10-17T20:21:43.996Z,21.98
2022-10-17T20:24:16.376Z,22.65
2022-10-17T20:26:46.742Z,23.15
2022-10-17T20:29:17.551Z,23.80
2022-10-17T20:31:47.299Z,22.83
2022-10-17T20:34:16.891Z,24.48
2022-10-17T20:36:45.314Z,24.35
2022-10-17T20:39:15.152Z,24.17
2022-10-17T20:41:44.114Z,23.58
2022-10-17T20:44:14.363Z,24.33
2022-10-17T20:46:52.661Z,22.50
2022-10-17T20:49:28.781Z,23.45
2022-10-17T20:51:56.991Z,23.77
2022-10-17T20:54:25.304Z,22.80
2022-10-17T20:56:53.431Z,23.13
2022-10-17T20:59:24.395Z,23.40
2022-10-17T21:01:54.493Z,24.17
2022-10-17T21:04:44.625Z,24.38
2022-10-17T21:07:10.995Z,23.45
2022-10-17T21:09:39.127Z,24.02
2022-10-17T21:12:07.371Z,22.08
2022-10-17T21:14:37.442Z,22.00
2022-10-17T21:17:05.816Z,23.10
2022-10-17T21:19:34.022Z,22.95
2022-10-17T21:22:02.451Z,21.13
2022-10-17T21:24:31.650Z,21.08
2022-10-17T21:27:00.036Z,22.38
2022-10-17T21:29:28.387Z,20.90
2022-10-17T21:31:57.976Z,22.23
2022-10-17T21:34:26.125Z,21.85
2022-10-17T21:36:54.660Z,21.80
2022-10-17T21:39:24.790Z,21.27
2022-10-17T21:41:53.808Z,21.10
2022-10-17T21:44:24.595Z,20.38
2022-10-17T21:46:53.743Z,21.15
2022-10-17T21:49:25.365Z,21.13
2022-10-17T21:51:54.334Z,20.52
2022-10-17T21:54:23.971Z,22.15
2022-10-17T21:56:52.985Z,20.92
2022-10-17T21:59:21.167Z,20.50
2022-10-17T22:01:49.427Z,20.80
2022-10-17T22:04:19.196Z,21.25
2022-10-17T22:06:52.356Z,20.85
2022-10-17T22:09:22.966Z,20.58
2022-10-17T22:11:53.989Z,21.33
2022-10-17T22:14:24.127Z,20.00
2022-10-17T22:16:53.307Z,21.75
2022-10-17T22:19:23.496Z,21.50
2022-10-17T22:21:53.151Z,22.27
2022-10-17T22:24:22.635Z,21.33
2022-10-17T22:26:51.196Z,21.40
2022-10-17T22:29:19.529Z,22.10
2022-10-17T22:31:47.909Z,21.63
2022-10-17T22:34:17.435Z,22.80
2022-10-17T22:36:47.723Z,20.73
2022-10-17T22:39:17.617Z,21.40
2022-10-17T22:41:45.838Z,20.42
2022-10-17T22:44:14.189Z,21.25
2022-10-17T22:46:42.453Z,21.30
2022-10-17T22:49:10.717Z,20.83
2022-10-17T22:51:38.895Z,20.45
2022-10-17T22:54:07.679Z,20.85
2022-10-17T22:56:37.172Z,19.98
2022-10-17T22:59:05.817Z,21.02
2022-10-17T23:01:34.031Z,20.88
2022-10-17T23:04:02.378Z,20.77
2022-10-17T23:06:30.570Z,21.23
2022-10-17T23:08:58.968Z,21.77
2022-10-17T23:11:27.090Z,20.77
2022-10-17T23:13:56.732Z,21.17
2022-10-17T23:16:24.966Z,19.77
2022-10-17T23:18:53.205Z,21.35
2022-10-17T23:21:21.386Z,21.00
2022-10-17T23:23:49.685Z,21.10
2022-10-17T23:26:17.923Z,20.75
2022-10-17T23:28:46.169Z,20.60
2022-10-17T23:31:17.176Z,20.58
2022-10-17T23:33:46.599Z,20.65
2022-10-17T23:36:15.665Z,20.98
2022-10-17T23:38:46.202Z,21.08
2022-10-17T23:41:15.027Z,21.73
2022-10-17T23:43:43.612Z,20.55
2022-10-17T23:46:12.319Z,21.08
2022-10-17T23:48:42.471Z,19.45
2022-10-17T23:51:11.889Z,20.90
2022-10-17T23:53:41.199Z,19.38
2022-10-17T23:56:10.439Z,19.92
2022-10-17T23:58:39.129Z,18.35
